Time;durP1;ratioP1;P1;durP2;ratioP2;P2;SDS_P1;SDS_P2;PMS_P1;PMS_P2;Temp;Humidity;BMP_temperature;BMP_pressure;BME280_temperature;BME280_humidity;BME280_pressure;Samples;Min_cycle;Max_cycle;Signal;HPM_P1;HPM_P2
2022/06/24 00:01:15;0.00;0.00;0.62;0.00;0.00;0.62;3.53;3.23;;;31.80;21.70;;;;;;2256960;61;20445;-58
2022/06/24 00:04:00;0.00;0.00;0.62;0.00;0.00;0.62;3.60;3.30;;;31.80;21.70;;;;;;2257034;61;20448;-58
2022/06/24 00:06:46;0.00;0.00;0.62;0.00;0.00;0.62;4.23;3.83;;;31.70;21.60;;;;;;2256316;61;20477;-57
2022/06/24 00:09:31;0.00;0.00;0.62;0.00;0.00;0.62;3.20;2.90;;;31.70;21.50;;;;;;2257408;61;20369;-57
2022/06/24 00:12:20;0.00;0.00;0.62;0.00;0.00;0.62;3.63;3.33;;;31.70;21.50;;;;;;2257257;61;20374;-57
2022/06/24 00:15:07;0.00;0.00;0.62;0.00;0.00;0.62;3.40;3.10;;;31.70;21.50;;;;;;2257550;61;20585;-59
2022/06/24 00:17:52;0.00;0.00;0.62;0.00;0.00;0.62;5.00;3.60;;;31.70;21.50;;;;;;2257356;61;20409;-58
2022/06/24 00:20:42;0.00;0.00;0.62;0.00;0.00;0.62;4.57;4.00;;;31.70;21.50;;;;;;2257308;61;20584;-58
2022/06/24 00:23:30;0.00;0.00;0.62;0.00;0.00;0.62;3.77;3.40;;;31.70;21.50;;;;;;2257842;61;20430;-60
2022/06/24 00:26:15;0.00;0.00;0.62;0.00;0.00;0.62;3.93;3.53;;;31.70;21.50;;;;;;2258296;61;20468;-59
2022/06/24 00:29:01;0.00;0.00;0.62;0.00;0.00;0.62;3.53;3.23;;;31.70;21.70;;;;;;2257224;61;20432;-58
2022/06/24 00:32:01;0.00;0.00;0.62;0.00;0.00;0.62;4.07;3.07;;;31.60;21.70;;;;;;2256080;61;20393;-56
2022/06/24 00:34:46;0.00;0.00;0.62;0.00;0.00;0.62;3.50;3.20;;;31.60;21.80;;;;;;2255026;61;20429;-59
2022/06/24 00:37:33;0.00;0.00;0.62;0.00;0.00;0.62;3.50;3.20;;;31.60;21.70;;;;;;2255584;61;20431;-59
2022/06/24 00:40:25;0.00;0.00;0.62;0.00;0.00;0.62;4.00;3.57;;;31.60;21.70;;;;;;2256009;61;20409;-59
2022/06/24 00:43:22;0.00;0.00;0.62;0.00;0.00;0.62;4.07;3.70;;;31.60;21.70;;;;;;2255365;61;20439;-59
2022/06/24 00:46:12;0.00;0.00;0.62;0.00;0.00;0.62;3.60;3.30;;;31.60;21.70;;;;;;2255389;61;20370;-58
2022/06/24 00:48:58;0.00;0.00;0.62;0.00;0.00;0.62;3.90;3.53;;;31.60;21.70;;;;;;2252288;61;20443;-58
2022/06/24 00:51:43;0.00;0.00;0.62;0.00;0.00;0.62;4.03;3.63;;;31.50;21.60;;;;;;2251606;61;20963;-58
2022/06/24 00:54:28;0.00;0.00;0.62;0.00;0.00;0.62;3.93;3.50;;;31.50;21.60;;;;;;2252201;61;20501;-55
2022/06/24 00:57:13;0.00;0.00;0.62;0.00;0.00;0.62;4.10;3.70;;;31.50;21.60;;;;;;2251642;61;20386;-57
2022/06/24 00:59:59;0.00;0.00;0.62;0.00;0.00;0.62;4.10;3.70;;;31.50;21.60;;;;;;2251901;61;20931;-58
2022/06/24 01:02:47;0.00;0.00;0.62;0.00;0.00;0.62;4.17;3.77;;;31.50;21.60;;;;;;2252683;61;20358;-56
2022/06/24 01:05:33;0.00;0.00;0.62;0.00;0.00;0.62;4.17;3.77;;;31.50;21.70;;;;;;2251433;61;20442;-57
2022/06/24 01:08:18;0.00;0.00;0.62;0.00;0.00;0.62;3.80;3.50;;;31.40;21.60;;;;;;2252206;61;20390;-59
2022/06/24 01:11:03;0.00;0.00;0.62;0.00;0.00;0.62;4.47;4.07;;;31.40;21.60;;;;;;2252105;61;20414;-58
2022/06/24 01:13:48;0.00;0.00;0.62;0.00;0.00;0.62;4.13;3.73;;;31.40;21.60;;;;;;2251238;61;20455;-59
2022/06/24 01:16:34;0.00;0.00;0.62;0.00;0.00;0.62;3.50;3.20;;;31.40;21.60;;;;;;2252306;61;20936;-57
2022/06/24 01:19:20;0.00;0.00;0.62;0.00;0.00;0.62;5.00;3.90;;;31.40;22.10;;;;;;2251491;61;20406;-59
2022/06/24 01:22:07;0.00;0.00;0.62;0.00;0.00;0.62;4.00;3.60;;;31.40;21.50;;;;;;2251786;61;20371;-57
2022/06/24 01:24:54;0.00;0.00;0.62;0.00;0.00;0.62;3.77;3.47;;;31.30;21.50;;;;;;2252100;61;20417;-58
2022/06/24 01:27:39;0.00;0.00;0.62;0.00;0.00;0.62;3.50;3.20;;;31.30;21.50;;;;;;2251444;61;20436;-57
2022/06/24 01:30:24;0.00;0.00;0.62;0.00;0.00;0.62;3.70;3.23;;;31.30;21.50;;;;;;2248763;61;20370;-58
2022/06/24 01:33:09;0.00;0.00;0.62;0.00;0.00;0.62;3.67;3.27;;;31.30;21.50;;;;;;2251877;61;20490;-57
2022/06/24 01:35:54;0.00;0.00;0.62;0.00;0.00;0.62;3.93;3.30;;;31.30;21.50;;;;;;2248178;61;20858;-56
2022/06/24 01:38:40;0.00;0.00;0.62;0.00;0.00;0.62;3.63;3.33;;;31.20;21.40;;;;;;2252221;61;20417;-59
2022/06/24 01:41:25;0.00;0.00;0.62;0.00;0.00;0.62;4.37;2.93;;;31.20;21.50;;;;;;2251292;61;20490;-56
2022/06/24 01:44:10;0.00;0.00;0.62;0.00;0.00;0.62;3.60;3.30;;;31.20;21.40;;;;;;2248527;61;20362;-58
2022/06/24 01:46:54;0.00;0.00;0.62;0.00;0.00;0.62;3.33;3.03;;;31.20;21.40;;;;;;2254405;61;20456;-56
2022/06/24 01:49:39;0.00;0.00;0.62;0.00;0.00;0.62;4.03;3.67;;;31.20;21.40;;;;;;2255499;61;20389;-59
2022/06/24 01:52:24;0.00;0.00;0.62;0.00;0.00;0.62;3.60;3.30;;;31.10;21.30;;;;;;2255795;61;20469;-58
2022/06/24 01:55:10;0.00;0.00;0.62;0.00;0.00;0.62;4.00;3.60;;;31.10;21.30;;;;;;2255331;61;20856;-56
2022/06/24 01:57:55;0.00;0.00;0.62;0.00;0.00;0.62;3.40;3.10;;;31.10;21.30;;;;;;2255439;61;20393;-56
2022/06/24 02:00:40;0.00;0.00;0.62;0.00;0.00;0.62;3.43;3.13;;;31.10;21.30;;;;;;2256242;61;20416;-57
2022/06/24 02:03:25;0.00;0.00;0.62;0.00;0.00;0.62;3.83;3.53;;;31.10;21.30;;;;;;2255647;61;20366;-58
2022/06/24 02:06:12;0.00;0.00;0.62;0.00;0.00;0.62;3.80;3.50;;;31.00;21.30;;;;;;2255573;61;20401;-56
2022/06/24 02:08:57;0.00;0.00;0.62;0.00;0.00;0.62;3.90;3.17;;;31.00;21.30;;;;;;2256031;61;20478;-57
2022/06/24 02:14:48;0.00;0.00;0.62;0.00;0.00;0.62;4.27;3.90;;;31.00;21.30;;;;;;2255351;61;20446;-58
2022/06/24 02:17:32;0.00;0.00;0.62;0.00;0.00;0.62;3.53;3.23;;;31.00;21.30;;;;;;2255827;61;20401;-58
2022/06/24 02:20:18;0.00;0.00;0.62;0.00;0.00;0.62;5.23;3.50;;;31.00;21.30;;;;;;2255237;61;20497;-58
2022/06/24 02:23:03;0.00;0.00;0.62;0.00;0.00;0.62;3.87;3.57;;;31.00;21.30;;;;;;2255992;61;20384;-58
2022/06/24 02:25:49;0.00;0.00;0.62;0.00;0.00;0.62;3.67;3.37;;;30.90;21.30;;;;;;2255389;61;20361;-59
2022/06/24 02:28:36;0.00;0.00;0.62;0.00;0.00;0.62;4.17;3.87;;;30.90;21.30;;;;;;2255578;61;20393;-57
2022/06/24 02:31:21;0.00;0.00;0.62;0.00;0.00;0.62;3.23;2.93;;;30.90;21.30;;;;;;2256110;61;20417;-56
2022/06/24 02:34:06;0.00;0.00;0.62;0.00;0.00;0.62;4.00;3.70;;;30.90;21.20;;;;;;2255069;61;21259;-55
2022/06/24 02:36:50;0.00;0.00;0.62;0.00;0.00;0.62;3.70;3.40;;;30.90;21.20;;;;;;2255546;61;20938;-58
2022/06/24 02:39:35;0.00;0.00;0.62;0.00;0.00;0.62;7.93;4.13;;;30.90;21.20;;;;;;2256149;61;20420;-55
2022/06/24 02:42:20;0.00;0.00;0.62;0.00;0.00;0.62;3.83;3.50;;;30.80;21.20;;;;;;2255191;61;20462;-57
2022/06/24 02:45:08;0.00;0.00;0.62;0.00;0.00;0.62;5.17;3.43;;;30.80;21.20;;;;;;2255925;61;20362;-56
2022/06/24 02:47:53;0.00;0.00;0.62;0.00;0.00;0.62;3.90;3.53;;;30.80;21.20;;;;;;2251675;61;20422;-57
2022/06/24 02:50:40;0.00;0.00;0.62;0.00;0.00;0.62;3.70;3.30;;;30.80;21.20;;;;;;2251522;61;20366;-57
2022/06/24 02:53:27;0.00;0.00;0.62;0.00;0.00;0.62;4.33;3.93;;;30.80;21.20;;;;;;2251902;61;20366;-56
2022/06/24 02:56:14;0.00;0.00;0.62;0.00;0.00;0.62;3.77;3.37;;;30.70;21.20;;;;;;2251116;61;20441;-58
2022/06/24 02:58:59;0.00;0.00;0.62;0.00;0.00;0.62;5.20;3.90;;;30.70;21.80;;;;;;2251476;61;20413;-57
2022/06/24 03:01:45;0.00;0.00;0.62;0.00;0.00;0.62;4.27;3.87;;;30.70;21.20;;;;;;2252158;61;20806;-57
2022/06/24 03:04:30;0.00;0.00;0.62;0.00;0.00;0.62;4.07;3.67;;;30.70;21.30;;;;;;2250873;61;20366;-55
2022/06/24 03:07:15;0.00;0.00;0.62;0.00;0.00;0.62;4.43;4.03;;;30.60;21.20;;;;;;2251962;61;20378;-58
2022/06/24 03:10:01;0.00;0.00;0.62;0.00;0.00;0.62;3.77;3.47;;;30.60;21.30;;;;;;2251584;61;20444;-58
2022/06/24 03:12:46;0.00;0.00;0.62;0.00;0.00;0.62;4.23;3.63;;;30.60;21.30;;;;;;2251654;61;20366;-59
2022/06/24 03:15:33;0.00;0.00;0.62;0.00;0.00;0.62;4.07;3.77;;;30.60;21.30;;;;;;2248731;61;20390;-58
2022/06/24 03:18:20;0.00;0.00;0.62;0.00;0.00;0.62;4.23;3.93;;;30.60;21.40;;;;;;2251430;61;20917;-58
2022/06/24 03:21:07;0.00;0.00;0.62;0.00;0.00;0.62;5.33;4.13;;;30.60;21.40;;;;;;2251860;61;21159;-57
2022/06/24 03:23:52;0.00;0.00;0.62;0.00;0.00;0.62;4.00;3.70;;;30.50;21.40;;;;;;2252100;61;20370;-56
2022/06/24 03:26:37;0.00;0.00;0.62;0.00;0.00;0.62;4.70;4.30;;;30.50;21.40;;;;;;2251246;61;20469;-57
2022/06/24 03:29:22;0.00;0.00;0.62;0.00;0.00;0.62;5.00;3.90;;;30.50;21.40;;;;;;2252425;61;20359;-58
2022/06/24 03:32:07;0.00;0.00;0.62;0.00;0.00;0.62;4.00;3.70;;;30.50;21.40;;;;;;2252012;61;20414;-57
2022/06/24 03:34:54;0.00;0.00;0.62;0.00;0.00;0.62;4.10;3.80;;;30.50;21.50;;;;;;2251848;61;20374;-57
2022/06/24 03:37:39;0.00;0.00;0.62;0.00;0.00;0.62;3.73;3.40;;;30.50;21.50;;;;;;2252338;61;20394;-58
2022/06/24 03:40:24;0.00;0.00;0.62;0.00;0.00;0.62;4.33;3.93;;;30.50;21.50;;;;;;2251454;61;20363;-55
2022/06/24 03:43:09;0.00;0.00;0.62;0.00;0.00;0.62;3.90;3.60;;;30.40;21.40;;;;;;2251354;61;20786;-55
2022/06/24 03:46:00;0.00;0.00;0.62;0.00;0.00;0.62;4.67;3.97;;;30.40;21.50;;;;;;2252249;61;20426;-55
2022/06/24 03:48:45;0.00;0.00;0.62;0.00;0.00;0.62;4.00;3.70;;;30.40;21.50;;;;;;2255037;61;20385;-58
2022/06/24 03:51:31;0.00;0.00;0.62;0.00;0.00;0.62;4.60;4.20;;;30.40;21.50;;;;;;2256096;61;20409;-56
2022/06/24 03:54:16;0.00;0.00;0.62;0.00;0.00;0.62;4.00;3.70;;;30.40;21.60;;;;;;2255113;61;20761;-56
2022/06/24 03:57:01;0.00;0.00;0.62;0.00;0.00;0.62;4.17;3.80;;;30.30;21.50;;;;;;2255283;61;20389;-58
2022/06/24 03:59:46;0.00;0.00;0.62;0.00;0.00;0.62;4.50;3.73;;;30.30;21.60;;;;;;2255850;61;20362;-56
2022/06/24 04:02:30;0.00;0.00;0.62;0.00;0.00;0.62;5.63;4.00;;;30.30;21.70;;;;;;2255070;61;20370;-56
2022/06/24 04:05:16;0.00;0.00;0.62;0.00;0.00;0.62;4.60;3.77;;;30.30;21.70;;;;;;2255069;61;20463;-57
2022/06/24 04:08:02;0.00;0.00;0.62;0.00;0.00;0.62;4.00;3.70;;;30.30;21.80;;;;;;2255708;61;20472;-57
2022/06/24 04:10:47;0.00;0.00;0.62;0.00;0.00;0.62;4.87;4.47;;;30.30;21.80;;;;;;2254685;61;20458;-58
2022/06/24 04:13:32;0.00;0.00;0.62;0.00;0.00;0.62;4.67;3.90;;;30.20;21.80;;;;;;2255615;61;20436;-57
2022/06/24 04:16:17;0.00;0.00;0.62;0.00;0.00;0.62;3.93;3.30;;;30.20;21.90;;;;;;2255295;61;20445;-58
2022/06/24 04:19:02;0.00;0.00;0.62;0.00;0.00;0.62;4.93;3.90;;;30.20;21.80;;;;;;2251887;61;20424;-58
2022/06/24 04:21:47;0.00;0.00;0.62;0.00;0.00;0.62;4.43;4.03;;;30.20;21.80;;;;;;2256348;61;20898;-55
2022/06/24 04:24:33;0.00;0.00;0.62;0.00;0.00;0.62;4.37;3.97;;;30.20;21.90;;;;;;2255460;61;20381;-57
2022/06/24 04:27:18;0.00;0.00;0.62;0.00;0.00;0.62;4.53;4.13;;;30.20;21.90;;;;;;2255746;61;20477;-57
2022/06/24 04:30:06;0.00;0.00;0.62;0.00;0.00;0.62;5.67;4.27;;;30.10;21.90;;;;;;2256492;61;20369;-57
2022/06/24 04:32:51;0.00;0.00;0.62;0.00;0.00;0.62;3.90;3.40;;;30.10;22.00;;;;;;2255688;61;20940;-58
2022/06/24 04:35:36;0.00;0.00;0.62;0.00;0.00;0.62;4.27;3.97;;;30.10;22.00;;;;;;2256281;61;20389;-59
2022/06/24 04:38:21;0.00;0.00;0.62;0.00;0.00;0.62;4.73;4.27;;;30.00;22.00;;;;;;2255823;61;20472;-55
2022/06/24 04:41:16;0.00;0.00;0.62;0.00;0.00;0.62;3.70;3.40;;;30.00;22.10;;;;;;2255557;61;20374;-57
2022/06/24 04:44:01;0.00;0.00;0.62;0.00;0.00;0.62;4.20;3.80;;;30.00;22.70;;;;;;2256190;61;20878;-56
2022/06/24 04:46:46;0.00;0.00;0.62;0.00;0.00;0.62;4.47;4.07;;;29.90;22.20;;;;;;2253466;61;20414;-58
2022/06/24 04:49:32;0.00;0.00;0.62;0.00;0.00;0.62;6.33;4.47;;;29.90;22.20;;;;;;2251748;61;20363;-55
2022/06/24 04:52:17;0.00;0.00;0.62;0.00;0.00;0.62;4.40;4.00;;;29.90;22.30;;;;;;2252434;61;20378;-56
2022/06/24 04:55:04;0.00;0.00;0.62;0.00;0.00;0.62;4.57;4.07;;;29.90;22.30;;;;;;2251405;61;20363;-57
2022/06/24 04:57:50;0.00;0.00;0.62;0.00;0.00;0.62;3.93;3.63;;;29.90;22.50;;;;;;2252291;61;20849;-57
2022/06/24 05:00:35;0.00;0.00;0.62;0.00;0.00;0.62;4.13;3.40;;;29.80;22.50;;;;;;2251887;61;20889;-57
2022/06/24 05:03:20;0.00;0.00;0.62;0.00;0.00;0.62;4.17;3.77;;;29.80;22.50;;;;;;2251375;61;20776;-57
2022/06/24 05:06:05;0.00;0.00;0.62;0.00;0.00;0.62;4.27;3.60;;;29.80;22.50;;;;;;2252317;61;20378;-58
2022/06/24 05:08:50;0.00;0.00;0.62;0.00;0.00;0.62;5.47;4.10;;;29.80;22.60;;;;;;2248284;61;20383;-54
2022/06/24 05:11:35;0.00;0.00;0.62;0.00;0.00;0.62;4.00;3.60;;;29.80;22.60;;;;;;2251805;61;20455;-57
2022/06/24 05:14:21;0.00;0.00;0.62;0.00;0.00;0.62;4.00;3.70;;;29.80;22.70;;;;;;2248901;61;20367;-56
2022/06/24 05:17:05;0.00;0.00;0.62;0.00;0.00;0.62;4.27;3.97;;;29.80;22.70;;;;;;2251457;61;20402;-55
2022/06/24 05:19:50;0.00;0.00;0.62;0.00;0.00;0.62;5.30;4.13;;;29.80;22.70;;;;;;2252133;61;20447;-57
2022/06/24 05:22:35;0.00;0.00;0.62;0.00;0.00;0.62;5.23;3.83;;;29.80;22.80;;;;;;2251367;61;20406;-57
2022/06/24 05:25:20;0.00;0.00;0.62;0.00;0.00;0.62;6.67;3.70;;;29.80;22.80;;;;;;2251354;61;20391;-57
2022/06/24 05:28:06;0.00;0.00;0.62;0.00;0.00;0.62;4.00;3.70;;;29.80;22.80;;;;;;2252158;61;20395;-58
2022/06/24 05:30:56;0.00;0.00;0.62;0.00;0.00;0.62;5.03;4.53;;;29.80;22.90;;;;;;2251522;61;20430;-58
2022/06/24 05:33:41;0.00;0.00;0.62;0.00;0.00;0.62;5.37;4.87;;;29.80;22.90;;;;;;2251451;61;20410;-57
2022/06/24 05:36:26;0.00;0.00;0.62;0.00;0.00;0.62;6.53;3.73;;;29.80;22.90;;;;;;2252220;61;20426;-58
2022/06/24 05:39:10;0.00;0.00;0.62;0.00;0.00;0.62;4.67;4.00;;;29.80;23.00;;;;;;2251708;61;20445;-58
2022/06/24 05:41:55;0.00;0.00;0.62;0.00;0.00;0.62;4.70;4.30;;;29.80;23.00;;;;;;2252280;61;20943;-59
2022/06/24 05:44:40;0.00;0.00;0.62;0.00;0.00;0.62;6.20;4.40;;;29.80;23.00;;;;;;2252056;61;20453;-54
2022/06/24 05:47:26;0.00;0.00;0.62;0.00;0.00;0.62;5.73;4.83;;;29.80;23.00;;;;;;2254429;61;20421;-56
2022/06/24 05:50:11;0.00;0.00;0.62;0.00;0.00;0.62;4.40;4.00;;;29.90;23.10;;;;;;2256121;61;20907;-62
2022/06/24 05:56:01;0.00;0.00;0.62;0.00;0.00;0.62;4.67;4.00;;;29.90;23.20;;;;;;2255783;61;20385;-54
2022/06/24 05:58:46;0.00;0.00;0.62;0.00;0.00;0.62;4.63;4.03;;;29.90;23.20;;;;;;2256079;61;20386;-59
2022/06/24 06:01:31;0.00;0.00;0.62;0.00;0.00;0.62;5.03;4.23;;;29.90;23.20;;;;;;2255260;61;20366;-55
2022/06/24 06:04:17;0.00;0.00;0.62;0.00;0.00;0.62;6.70;4.50;;;29.90;23.20;;;;;;2254731;61;20366;-53
2022/06/24 06:07:03;0.00;0.00;0.62;0.00;0.00;0.62;4.13;3.73;;;29.90;23.20;;;;;;2255209;61;20401;-60
2022/06/24 06:09:48;0.00;0.00;0.62;0.00;0.00;0.62;4.47;4.07;;;29.90;23.20;;;;;;2255196;61;20506;-58
2022/06/24 06:12:34;0.00;0.00;0.62;0.00;0.00;0.62;4.33;3.93;;;29.90;23.30;;;;;;2255531;61;20398;-62
2022/06/24 06:15:20;0.00;0.00;0.62;0.00;0.00;0.62;6.43;4.47;;;30.00;23.30;;;;;;2255611;61;20381;-55
2022/06/24 06:18:05;0.00;0.00;0.62;0.00;0.00;0.62;3.90;3.50;;;30.00;23.40;;;;;;2255662;61;20917;-59
2022/06/24 06:20:51;0.00;0.00;0.62;0.00;0.00;0.62;3.60;3.30;;;30.00;23.40;;;;;;2256620;61;20458;-59
2022/06/24 06:23:39;0.00;0.00;0.62;0.00;0.00;0.62;4.20;3.90;;;30.00;23.40;;;;;;2256323;61;20412;-59
2022/06/24 06:26:24;0.00;0.00;0.62;0.00;0.00;0.62;4.60;4.20;;;30.00;23.50;;;;;;2256177;61;20447;-60
2022/06/24 06:29:09;0.00;0.00;0.62;0.00;0.00;0.62;4.80;4.40;;;30.00;23.60;;;;;;2256159;61;20462;-60
2022/06/24 06:31:55;0.00;0.00;0.62;0.00;0.00;0.62;3.90;3.43;;;30.10;23.60;;;;;;2253177;61;20821;-59
2022/06/24 06:34:39;0.00;0.00;0.62;0.00;0.00;0.62;5.30;4.57;;;30.10;23.60;;;;;;2251546;61;20821;-54
2022/06/24 06:37:26;0.00;0.00;0.62;0.00;0.00;0.62;4.47;4.07;;;30.10;23.70;;;;;;2251395;61;20425;-56
2022/06/24 06:40:11;0.00;0.00;0.62;0.00;0.00;0.62;4.83;4.40;;;30.10;23.80;;;;;;2251135;61;20421;-56
2022/06/24 06:42:56;0.00;0.00;0.62;0.00;0.00;0.62;5.57;4.07;;;30.10;23.80;;;;;;2252075;61;20371;-59
2022/06/24 06:45:42;0.00;0.00;0.62;0.00;0.00;0.62;4.70;4.30;;;30.20;23.80;;;;;;2250952;61;20767;-57
2022/06/24 06:48:27;0.00;0.00;0.62;0.00;0.00;0.62;4.10;3.80;;;30.20;23.90;;;;;;2255412;61;20386;-56
2022/06/24 06:51:12;0.00;0.00;0.62;0.00;0.00;0.62;5.23;3.93;;;30.20;23.90;;;;;;2256027;61;20364;-56
2022/06/24 06:53:58;0.00;0.00;0.62;0.00;0.00;0.62;4.23;3.83;;;30.20;24.50;;;;;;2255407;61;20405;-57
2022/06/24 06:56:43;0.00;0.00;0.62;0.00;0.00;0.62;4.40;4.00;;;30.20;24.00;;;;;;2253235;61;20425;-56
2022/06/24 06:59:28;0.00;0.00;0.62;0.00;0.00;0.62;5.27;4.50;;;30.20;24.00;;;;;;2256417;61;20381;-63
2022/06/24 07:02:13;0.00;0.00;0.62;0.00;0.00;0.62;6.53;4.60;;;30.20;24.00;;;;;;2256262;61;20366;-61
2022/06/24 07:04:58;0.00;0.00;0.62;0.00;0.00;0.62;4.73;4.30;;;30.30;24.10;;;;;;2256609;61;20366;-59
2022/06/24 07:07:43;0.00;0.00;0.62;0.00;0.00;0.62;4.70;4.30;;;30.30;24.20;;;;;;2255506;61;20514;-58
2022/06/24 07:10:30;0.00;0.00;0.62;0.00;0.00;0.62;4.50;4.10;;;30.30;24.20;;;;;;2256285;61;20970;-57
2022/06/24 07:13:15;0.00;0.00;0.62;0.00;0.00;0.62;4.87;4.33;;;30.30;24.30;;;;;;2255612;61;20378;-55
2022/06/24 07:16:00;0.00;0.00;0.62;0.00;0.00;0.62;5.87;4.17;;;30.30;24.30;;;;;;2254770;61;20853;-55
2022/06/24 07:18:45;0.00;0.00;0.62;0.00;0.00;0.62;4.77;4.30;;;30.30;24.40;;;;;;2255735;61;20384;-57
2022/06/24 07:21:29;0.00;0.00;0.62;0.00;0.00;0.62;4.63;4.20;;;30.40;24.50;;;;;;2255712;61;20393;-56
2022/06/24 07:24:14;0.00;0.00;0.62;0.00;0.00;0.62;4.50;4.10;;;30.30;24.50;;;;;;2254941;61;20837;-59
2022/06/24 07:27:04;0.00;0.00;0.62;0.00;0.00;0.62;4.83;3.87;;;30.40;24.60;;;;;;2255684;61;20774;-58
2022/06/24 07:29:49;0.00;0.00;0.62;0.00;0.00;0.62;4.03;3.60;;;30.40;24.70;;;;;;2251962;61;20892;-58
2022/06/24 07:32:33;0.00;0.00;0.62;0.00;0.00;0.62;4.00;3.70;;;30.40;24.70;;;;;;2255537;61;20409;-57
2022/06/24 07:35:18;0.00;0.00;0.62;0.00;0.00;0.62;3.67;3.37;;;30.40;24.80;;;;;;2255574;61;20774;-60
2022/06/24 07:38:04;0.00;0.00;0.62;0.00;0.00;0.62;4.40;4.00;;;30.40;24.90;;;;;;2254931;61;20877;-61
2022/06/24 07:40:51;0.00;0.00;0.62;0.00;0.00;0.62;5.30;3.50;;;30.50;24.90;;;;;;2255615;61;20358;-60
2022/06/24 07:43:37;0.00;0.00;0.62;0.00;0.00;0.62;4.87;4.07;;;30.50;25.70;;;;;;2254951;61;20872;-56
2022/06/24 07:46:22;0.00;0.00;0.62;0.00;0.00;0.62;4.17;3.77;;;30.50;25.10;;;;;;2251107;61;20410;-57
2022/06/24 07:49:07;0.00;0.00;0.62;0.00;0.00;0.62;5.60;4.10;;;30.50;24.90;;;;;;2251625;61;20417;-59
2022/06/24 07:51:52;0.00;0.00;0.62;0.00;0.00;0.62;5.30;3.63;;;30.50;25.10;;;;;;2251099;61;20367;-59
2022/06/24 07:54:37;0.00;0.00;0.62;0.00;0.00;0.62;3.17;2.97;;;30.50;25.20;;;;;;2248167;61;20366;-59
2022/06/24 07:57:22;0.00;0.00;0.62;0.00;0.00;0.62;3.43;3.03;;;30.60;25.20;;;;;;2252143;61;20469;-59
2022/06/24 08:00:09;0.00;0.00;0.62;0.00;0.00;0.62;5.20;3.00;;;30.60;25.20;;;;;;2251870;61;20371;-56
2022/06/24 08:02:57;0.00;0.00;0.62;0.00;0.00;0.62;3.30;2.50;;;30.60;25.20;;;;;;2251823;61;20367;-57
2022/06/24 08:05:42;0.00;0.00;0.62;0.00;0.00;0.62;3.30;3.00;;;30.60;25.20;;;;;;2251410;61;20378;-57
2022/06/24 08:08:27;0.00;0.00;0.62;0.00;0.00;0.62;5.40;3.00;;;30.60;25.20;;;;;;2251395;61;20390;-54
2022/06/24 08:11:12;0.00;0.00;0.62;0.00;0.00;0.62;2.90;2.60;;;30.60;25.20;;;;;;2252269;61;20955;-57
2022/06/24 08:13:57;0.00;0.00;0.62;0.00;0.00;0.62;4.33;3.37;;;30.70;25.30;;;;;;2251499;61;20366;-59
2022/06/24 08:16:44;0.00;0.00;0.62;0.00;0.00;0.62;5.60;3.90;;;30.60;25.20;;;;;;2251603;61;20938;-58
2022/06/24 08:19:29;0.00;0.00;0.62;0.00;0.00;0.62;5.40;3.10;;;30.70;25.30;;;;;;2252014;61;20417;-57
2022/06/24 08:22:14;0.00;0.00;0.62;0.00;0.00;0.62;4.00;3.00;;;30.70;25.30;;;;;;2251734;61;20441;-56
2022/06/24 08:24:59;0.00;0.00;0.62;0.00;0.00;0.62;4.03;2.60;;;30.70;25.30;;;;;;2248511;61;20779;-59
2022/06/24 08:27:44;0.00;0.00;0.62;0.00;0.00;0.62;4.07;3.00;;;30.70;25.30;;;;;;2251982;61;20437;-57
2022/06/24 08:30:29;0.00;0.00;0.62;0.00;0.00;0.62;3.73;3.27;;;30.70;25.30;;;;;;2251097;61;20469;-58
2022/06/24 08:33:15;0.00;0.00;0.62;0.00;0.00;0.62;3.90;3.00;;;30.80;25.30;;;;;;2251836;61;20370;-59
2022/06/24 08:36:00;0.00;0.00;0.62;0.00;0.00;0.62;3.50;3.07;;;30.80;25.30;;;;;;2251764;61;20386;-56
2022/06/24 08:38:46;0.00;0.00;0.62;0.00;0.00;0.62;3.53;3.23;;;30.80;25.40;;;;;;2251579;61;20390;-57
2022/06/24 08:41:31;0.00;0.00;0.62;0.00;0.00;0.62;3.40;2.73;;;30.80;25.40;;;;;;2251983;61;20826;-57
2022/06/24 08:44:16;0.00;0.00;0.62;0.00;0.00;0.62;3.30;2.80;;;30.80;25.40;;;;;;2251602;61;20362;-57
2022/06/24 08:47:01;0.00;0.00;0.62;0.00;0.00;0.62;3.30;3.00;;;30.80;25.30;;;;;;2251580;61;20362;-58
2022/06/24 08:49:49;0.00;0.00;0.62;0.00;0.00;0.62;4.00;3.10;;;30.80;25.30;;;;;;2252107;61;20394;-61
2022/06/24 08:52:33;0.00;0.00;0.62;0.00;0.00;0.62;4.27;3.87;;;30.90;25.40;;;;;;2251374;61;20367;-59
2022/06/24 08:55:20;0.00;0.00;0.62;0.00;0.00;0.62;4.40;3.07;;;30.90;25.40;;;;;;2251902;61;20370;-52
2022/06/24 08:58:06;0.00;0.00;0.62;0.00;0.00;0.62;2.80;2.60;;;30.90;25.40;;;;;;2251553;61;20926;-53
2022/06/24 09:00:51;0.00;0.00;0.62;0.00;0.00;0.62;3.10;2.77;;;30.90;25.40;;;;;;2251658;61;20409;-54
2022/06/24 09:03:36;0.00;0.00;0.62;0.00;0.00;0.62;3.57;3.27;;;30.90;25.50;;;;;;2251920;61;20371;-57
2022/06/24 09:06:22;0.00;0.00;0.62;0.00;0.00;0.62;3.50;3.20;;;30.90;25.60;;;;;;2251587;61;20378;-58
2022/06/24 09:09:08;0.00;0.00;0.62;0.00;0.00;0.62;3.50;3.00;;;31.00;25.70;;;;;;2251475;61;20387;-61
2022/06/24 09:11:57;0.00;0.00;0.62;0.00;0.00;0.62;6.27;2.97;;;31.00;25.70;;;;;;2252219;61;20888;-57
2022/06/24 09:14:48;0.00;0.00;0.62;0.00;0.00;0.62;3.60;3.00;;;31.00;25.70;;;;;;2250968;61;20367;-59
2022/06/24 09:17:34;0.00;0.00;0.62;0.00;0.00;0.62;3.10;2.80;;;31.00;25.80;;;;;;2251930;61;20418;-60
2022/06/24 09:20:22;0.00;0.00;0.62;0.00;0.00;0.62;3.10;2.80;;;31.00;25.90;;;;;;2251441;61;20449;-58
2022/06/24 09:23:10;0.00;0.00;0.62;0.00;0.00;0.62;4.37;2.70;;;31.10;26.00;;;;;;2248165;61;20911;-60
2022/06/24 09:26:00;0.00;0.00;0.62;0.00;0.00;0.62;3.63;2.70;;;31.10;26.00;;;;;;2251791;61;20375;-56
2022/06/24 09:28:53;0.00;0.00;0.62;0.00;0.00;0.62;4.80;3.03;;;31.10;26.00;;;;;;2251448;61;20437;-56
2022/06/24 09:31:39;0.00;0.00;0.62;0.00;0.00;0.62;5.70;2.57;;;31.10;26.10;;;;;;2251848;61;20371;-55
2022/06/24 09:34:24;0.00;0.00;0.62;0.00;0.00;0.62;3.10;2.33;;;31.10;26.20;;;;;;2248612;61;20402;-55
2022/06/24 09:37:09;0.00;0.00;0.62;0.00;0.00;0.62;6.23;2.67;;;31.10;26.20;;;;;;2250956;61;20393;-52
2022/06/24 09:39:56;0.00;0.00;0.62;0.00;0.00;0.62;3.77;2.30;;;31.10;26.20;;;;;;2248721;61;20425;-58
2022/06/24 09:42:40;0.00;0.00;0.62;0.00;0.00;0.62;4.23;2.40;;;31.20;26.30;;;;;;2251518;61;20771;-58
2022/06/24 09:45:41;0.00;0.00;0.62;0.00;0.00;0.62;4.20;2.60;;;31.10;26.40;;;;;;2251266;61;20366;-61
2022/06/24 09:48:28;0.00;0.00;0.62;0.00;0.00;0.62;2.93;2.63;;;31.20;26.30;;;;;;2247729;61;20535;-52
2022/06/24 09:51:15;0.00;0.00;0.62;0.00;0.00;0.62;5.60;2.60;;;31.20;26.40;;;;;;2244321;61;20439;-53
2022/06/24 09:54:01;0.00;0.00;0.62;0.00;0.00;0.62;4.50;2.60;;;31.20;26.40;;;;;;2247648;61;20834;-52
2022/06/24 09:56:49;0.00;0.00;0.62;0.00;0.00;0.62;4.60;2.80;;;31.20;26.40;;;;;;2247678;61;20426;-53
2022/06/24 10:02:39;0.00;0.00;0.62;0.00;0.00;0.62;4.17;2.20;;;31.20;26.40;;;;;;2247961;61;20367;-57
2022/06/24 10:05:28;0.00;0.00;0.62;0.00;0.00;0.62;4.80;2.10;;;31.20;26.50;;;;;;2247110;61;20395;-57
2022/06/24 10:08:15;0.00;0.00;0.62;0.00;0.00;0.62;3.57;2.57;;;31.20;26.70;;;;;;2247972;61;20467;-60
2022/06/24 10:11:05;0.00;0.00;0.62;0.00;0.00;0.62;3.00;2.33;;;31.20;26.80;;;;;;2248491;61;20912;-57
2022/06/24 10:13:51;0.00;0.00;0.62;0.00;0.00;0.62;3.67;2.40;;;31.20;26.90;;;;;;2246837;61;20368;-57
2022/06/24 10:16:37;0.00;0.00;0.62;0.00;0.00;0.62;2.77;2.20;;;31.20;26.90;;;;;;2248764;61;20391;-54
2022/06/24 10:19:25;0.00;0.00;0.62;0.00;0.00;0.62;2.50;2.17;;;31.20;26.90;;;;;;2251585;61;20363;-60
2022/06/24 10:22:30;0.00;0.00;0.62;0.00;0.00;0.62;3.17;2.30;;;31.20;27.00;;;;;;2251391;61;20406;-59
2022/06/24 10:25:20;0.00;0.00;0.62;0.00;0.00;0.62;4.37;2.57;;;31.20;27.00;;;;;;2251517;61;20398;-58
2022/06/24 10:28:06;0.00;0.00;0.62;0.00;0.00;0.62;3.20;2.40;;;31.20;27.10;;;;;;2251267;61;20386;-61
2022/06/24 10:30:58;0.00;0.00;0.62;0.00;0.00;0.62;4.30;2.77;;;31.20;27.20;;;;;;2251920;61;20941;-55
2022/06/24 10:33:42;0.00;0.00;0.62;0.00;0.00;0.62;7.77;2.63;;;31.20;27.30;;;;;;2251771;61;20407;-60
2022/06/24 10:36:31;0.00;0.00;0.62;0.00;0.00;0.62;3.03;2.67;;;31.20;27.30;;;;;;2251230;61;20487;-59
2022/06/24 10:39:18;0.00;0.00;0.62;0.00;0.00;0.62;3.37;2.30;;;31.20;27.50;;;;;;2251992;61;20367;-59
2022/06/24 10:42:06;0.00;0.00;0.62;0.00;0.00;0.62;2.93;2.63;;;31.20;27.60;;;;;;2251712;61;20840;-54
2022/06/24 10:44:58;0.00;0.00;0.62;0.00;0.00;0.62;4.50;2.50;;;31.20;27.70;;;;;;2251733;61;20406;-56
2022/06/24 10:47:44;0.00;0.00;0.62;0.00;0.00;0.62;4.40;2.60;;;31.20;28.00;;;;;;2256424;61;20969;-58
2022/06/24 10:50:29;0.00;0.00;0.62;0.00;0.00;0.62;3.13;2.83;;;31.20;28.20;;;;;;2255962;61;20370;-58
2022/06/24 10:53:15;0.00;0.00;0.62;0.00;0.00;0.62;3.73;2.93;;;31.20;28.20;;;;;;2256723;61;20357;-59
2022/06/24 10:56:00;0.00;0.00;0.62;0.00;0.00;0.62;3.80;2.90;;;31.30;28.30;;;;;;2253321;61;20481;-59
2022/06/24 10:58:44;0.00;0.00;0.62;0.00;0.00;0.62;4.40;2.70;;;31.30;28.40;;;;;;2252089;61;20387;-59
2022/06/24 11:01:30;0.00;0.00;0.62;0.00;0.00;0.62;3.20;2.63;;;31.30;28.40;;;;;;2252741;61;20430;-57
2022/06/24 11:04:23;0.00;0.00;0.62;0.00;0.00;0.62;3.43;2.53;;;31.30;28.70;;;;;;2252064;61;20362;-59